Terminal Aerodrome Forecast
Issued by NWS Mt. Holly, NJ

Home | Current Version | Previous Version | Text Only | Print | Product List | Glossary On
Versions: 1 2 3 4 5 6 7 8 9 10 11 12 13 14 15 16 17 18 19 20 21 22 23 24 25
679
FTUS41 KPHI 252330
TAFPHL
TAF
KPHL 252330Z 2600/2706 30014G24KT P6SM VCSH OVC050
     FM260200 30018G26KT P6SM BKN050
     FM260800 30014KT P6SM FEW060
     FM261400 29015G25KT P6SM BKN060
     FM262300 29010KT P6SM FEW060=

USA.gov is the U.S. government's official web portal to all federal, state and local government web resources and services.